createdAt,value
2023-02-18T00:02:26.383Z,99925.78
2023-02-18T00:04:56.520Z,99923.16
2023-02-18T00:07:26.462Z,99928.80
2023-02-18T00:09:56.218Z,99928.80
2023-02-18T00:12:26.040Z,99935.88
2023-02-18T00:14:55.801Z,99934.09
2023-02-18T00:17:25.764Z,99940.69
2023-02-18T00:19:55.539Z,99930.03
2023-02-18T00:22:25.883Z,99943.48
2023-02-18T00:24:55.640Z,99943.65
2023-02-18T00:27:25.453Z,99944.02
2023-02-18T00:29:55.207Z,99940.02
2023-02-18T00:32:28.354Z,99950.02
2023-02-18T00:34:58.500Z,99956.90
2023-02-18T00:37:28.353Z,99952.09
2023-02-18T00:39:58.153Z,99958.22
2023-02-18T00:42:27.948Z,99958.14
2023-02-18T00:44:57.716Z,99967.07
2023-02-18T00:47:27.545Z,99964.06
2023-02-18T00:49:57.601Z,99962.44
2023-02-18T00:52:27.395Z,99974.09
2023-02-18T00:54:57.158Z,99968.10
2023-02-18T00:57:26.950Z,99983.41
2023-02-18T00:59:56.764Z,99974.77
2023-02-18T01:02:26.578Z,99972.94
2023-02-18T01:04:56.388Z,99982.87
2023-02-18T01:07:26.247Z,99975.95
2023-02-18T01:09:56.294Z,99981.75
2023-02-18T01:12:26.109Z,99984.31
2023-02-18T01:14:56.860Z,99985.59
2023-02-18T01:17:27.012Z,99988.47
2023-02-18T01:19:56.842Z,99993.87
2023-02-18T01:22:26.713Z,99982.91
2023-02-18T01:24:56.496Z,99979.25
2023-02-18T01:27:28.151Z,100013.94
2023-02-18T01:29:58.024Z,99978.61
2023-02-18T01:32:27.972Z,99976.82
2023-02-18T01:34:57.780Z,99974.83
2023-02-18T01:37:28.834Z,99970.54
2023-02-18T01:39:58.813Z,99968.58
2023-02-18T01:42:30.612Z,99979.90
2023-02-18T01:45:26.150Z,99970.58
2023-02-18T01:47:56.431Z,99978.75
2023-02-18T01:50:26.872Z,99971.79
2023-02-18T01:52:56.441Z,99971.79
2023-02-18T01:55:26.304Z,99979.96
2023-02-18T01:57:56.558Z,99973.98
2023-02-18T02:00:26.551Z,99974.02
2023-02-18T02:02:56.571Z,99977.09
2023-02-18T02:05:27.883Z,99971.16
2023-02-18T02:07:57.502Z,99982.80
2023-02-18T02:10:36.112Z,99977.09
2023-02-18T02:13:21.918Z,99976.38
2023-02-18T02:15:54.814Z,99980.39
2023-02-18T02:18:30.540Z,99976.70
2023-02-18T02:21:06.170Z,99976.34
2023-02-18T02:23:58.540Z,99978.87
2023-02-18T02:27:02.133Z,99984.84
2023-02-18T02:29:43.740Z,99977.09
2023-02-18T02:32:30.172Z,99977.45
2023-02-18T02:35:20.484Z,99979.14
2023-02-18T02:37:55.898Z,99979.26
2023-02-18T02:40:45.969Z,99973.34
2023-02-18T02:43:36.650Z,99983.72
2023-02-18T02:46:24.194Z,99970.95
2023-02-18T02:49:13.718Z,99968.69
2023-02-18T02:52:04.448Z,99969.48
2023-02-18T02:54:34.194Z,99977.47
2023-02-18T02:57:16.588Z,99980.30
2023-02-18T02:59:57.217Z,99984.89
2023-02-18T03:02:36.012Z,99992.17
2023-02-18T03:05:24.928Z,99990.77
2023-02-18T03:08:17.670Z,99996.02
2023-02-18T03:11:08.698Z,99995.37
2023-02-18T03:13:47.815Z,99998.40
2023-02-18T03:16:37.772Z,100005.91
2023-02-18T03:19:16.706Z,100005.63
2023-02-18T03:22:08.307Z,100006.84
2023-02-18T03:24:44.387Z,100014.16
2023-02-18T03:27:21.540Z,100005.45
2023-02-18T03:29:54.391Z,100016.02
2023-02-18T03:32:26.501Z,100021.11
2023-02-18T03:34:59.336Z,100017.25
2023-02-18T03:37:31.170Z,100031.20
2023-02-18T03:40:03.045Z,100032.77
2023-02-18T03:42:33.321Z,100034.55
2023-02-18T03:45:03.413Z,100034.38
2023-02-18T03:47:33.060Z,100041.70
2023-02-18T03:50:03.040Z,100038.56
2023-02-18T03:52:35.531Z,100038.99
2023-02-18T03:55:07.238Z,100040.03
2023-02-18T03:57:37.252Z,100047.16
2023-02-18T04:00:08.544Z,100055.24
2023-02-18T04:02:44.270Z,100047.88
2023-02-18T04:05:16.421Z,100061.20
2023-02-18T04:07:46.263Z,100062.72
2023-02-18T04:10:15.989Z,100062.17
2023-02-18T04:12:46.035Z,100060.89
2023-02-18T04:15:16.085Z,100071.89
2023-02-18T04:17:45.859Z,100065.13
2023-02-18T04:20:16.749Z,100065.03
2023-02-18T04:22:46.508Z,100067.52
2023-02-18T04:25:16.398Z,100069.38
2023-02-18T04:27:46.249Z,100069.38
2023-02-18T04:30:18.579Z,100071.16
2023-02-18T04:32:49.196Z,100065.14
2023-02-18T04:35:19.313Z,100071.98
2023-02-18T04:37:49.149Z,100066.88
2023-02-18T04:40:19.045Z,100075.84
2023-02-18T04:42:48.785Z,100073.77
2023-02-18T04:45:18.562Z,100070.61
2023-02-18T04:47:48.387Z,100070.61
2023-02-18T04:50:18.046Z,100067.37
2023-02-18T04:52:47.811Z,100067.39
2023-02-18T04:55:17.496Z,100071.36
2023-02-18T04:57:47.266Z,100066.84
2023-02-18T05:00:19.162Z,100072.16
2023-02-18T05:02:49.281Z,100060.30
2023-02-18T05:05:19.197Z,100061.03
2023-02-18T05:07:49.241Z,100053.33
2023-02-18T05:10:19.596Z,100054.86
2023-02-18T05:12:49.185Z,100051.57
2023-02-18T05:15:19.116Z,100045.05
2023-02-18T05:17:49.039Z,100038.52
2023-02-18T05:20:18.706Z,100049.02
2023-02-18T05:22:48.458Z,100045.47
2023-02-18T05:25:18.340Z,100050.75
2023-02-18T05:27:48.460Z,100054.42
2023-02-18T05:30:18.405Z,100052.91
2023-02-18T05:32:48.283Z,100052.91
2023-02-18T05:35:17.894Z,100037.88
2023-02-18T05:37:49.134Z,100053.68
2023-02-18T05:40:19.021Z,100050.22
2023-02-18T05:42:48.789Z,100059.80
2023-02-18T05:45:18.464Z,100061.48
2023-02-18T05:47:48.402Z,100061.48
2023-02-18T05:50:18.220Z,100068.05
2023-02-18T05:52:48.333Z,100075.08
2023-02-18T05:55:18.224Z,100076.42
2023-02-18T05:57:47.971Z,100078.94
2023-02-18T06:00:18.739Z,100086.64
2023-02-18T06:02:49.039Z,100086.64
2023-02-18T06:05:18.809Z,100088.27
2023-02-18T06:07:48.707Z,100079.50
2023-02-18T06:10:18.615Z,100080.27
2023-02-18T06:12:48.702Z,100093.22
2023-02-18T06:15:18.541Z,100091.34
2023-02-18T06:17:48.410Z,100091.34
2023-02-18T06:20:17.952Z,100101.87
2023-02-18T06:22:47.775Z,100097.66
2023-02-18T06:25:17.782Z,100087.41
2023-02-18T06:27:47.591Z,100095.49
2023-02-18T06:30:17.220Z,100095.95
2023-02-18T06:32:47.045Z,100095.95
2023-02-18T06:35:16.547Z,100089.29
2023-02-18T06:37:46.456Z,100083.64
2023-02-18T06:40:16.228Z,100096.25
2023-02-18T06:42:46.329Z,100095.77
2023-02-18T06:45:17.933Z,100098.57
2023-02-18T06:47:47.387Z,100098.41
2023-02-18T06:50:17.129Z,100097.74
2023-02-18T06:52:47.022Z,100096.80
2023-02-18T06:55:16.545Z,100105.73
2023-02-18T06:57:46.428Z,100105.73
2023-02-18T07:00:16.582Z,100099.70
2023-02-18T07:02:46.182Z,100100.94
2023-02-18T07:05:16.207Z,100105.89
2023-02-18T07:07:47.113Z,100106.95
2023-02-18T07:10:16.962Z,100103.83
2023-02-18T07:12:47.056Z,100103.39
2023-02-18T07:15:21.435Z,100101.59
2023-02-18T07:17:54.874Z,100101.59
2023-02-18T07:20:25.389Z,100105.17
2023-02-18T07:22:57.009Z,100095.75
2023-02-18T07:25:27.488Z,100101.86
2023-02-18T07:27:57.182Z,100102.43
2023-02-18T07:30:27.089Z,100111.64
2023-02-18T07:32:56.889Z,100113.71
2023-02-18T07:35:26.712Z,100105.81
2023-02-18T07:37:57.866Z,100111.98
2023-02-18T07:40:27.733Z,100103.34
2023-02-18T07:42:57.803Z,100103.34
2023-02-18T07:45:27.711Z,100100.52
2023-02-18T07:47:57.518Z,100111.33
2023-02-18T07:50:27.613Z,100106.39
2023-02-18T07:52:57.388Z,100113.44
2023-02-18T07:55:28.897Z,100109.22
2023-02-18T07:57:57.655Z,100099.42
2023-02-18T08:00:27.437Z,100102.82
2023-02-18T08:02:57.214Z,100105.88
2023-02-18T08:05:27.327Z,100107.09
2023-02-18T08:07:57.155Z,100108.36
2023-02-18T08:10:26.940Z,100109.34
2023-02-18T08:12:57.000Z,100114.41
2023-02-18T08:15:26.801Z,100114.77
2023-02-18T08:17:56.591Z,100118.56
2023-02-18T08:20:27.043Z,100116.98
2023-02-18T08:22:56.567Z,100127.47
2023-02-18T08:25:29.632Z,100120.64
2023-02-18T08:27:58.027Z,100120.61
2023-02-18T08:30:28.607Z,100121.13
2023-02-18T08:32:58.333Z,100119.50
2023-02-18T08:35:28.140Z,100122.43
2023-02-18T08:37:58.710Z,100123.66
2023-02-18T08:40:28.231Z,100113.41
2023-02-18T08:42:58.017Z,100123.55
2023-02-18T08:45:27.955Z,100129.75
2023-02-18T08:48:16.597Z,100117.16
2023-02-18T08:50:29.499Z,100124.48
2023-02-18T08:53:03.443Z,100148.69
2023-02-18T08:55:35.179Z,100133.68
2023-02-18T08:58:06.770Z,100132.52
2023-02-18T09:00:37.301Z,100130.44
2023-02-18T09:03:06.916Z,100129.53
2023-02-18T09:05:36.723Z,100122.77
2023-02-18T09:08:06.834Z,100129.83
2023-02-18T09:10:36.784Z,100113.47
2023-02-18T09:13:06.906Z,100116.56
2023-02-18T09:15:36.894Z,100092.30
2023-02-18T09:18:07.036Z,100092.30
2023-02-18T09:20:36.879Z,100107.86
2023-02-18T09:23:06.841Z,100101.37
2023-02-18T09:25:36.671Z,100100.48
2023-02-18T09:28:06.526Z,100112.76
2023-02-18T09:30:36.450Z,100118.75
2023-02-18T09:33:06.543Z,100112.91
2023-02-18T09:35:42.311Z,100106.48
2023-02-18T09:38:13.828Z,100106.20
2023-02-18T09:40:52.250Z,100103.00
2023-02-18T09:43:27.792Z,100108.83
2023-02-18T09:45:59.949Z,100106.16
2023-02-18T09:48:35.705Z,100107.57
2023-02-18T09:51:07.270Z,100102.49
2023-02-18T09:53:36.958Z,100090.66
2023-02-18T09:56:07.969Z,100085.95
2023-02-18T09:58:37.525Z,100083.46
2023-02-18T10:01:19.030Z,100078.23
2023-02-18T10:03:48.964Z,100081.91
2023-02-18T10:06:21.549Z,100088.45
2023-02-18T10:08:53.707Z,100088.25
2023-02-18T10:11:35.121Z,100089.56
2023-02-18T10:14:06.921Z,100080.92
2023-02-18T10:16:36.963Z,100078.05
2023-02-18T10:19:26.364Z,100081.20
2023-02-18T10:21:57.192Z,100063.44
2023-02-18T10:24:36.221Z,100063.44
2023-02-18T10:27:08.407Z,100059.36
2023-02-18T10:29:38.385Z,100057.61
2023-02-18T10:32:25.848Z,100053.57
2023-02-18T10:35:07.462Z,100041.66
2023-02-18T10:37:46.613Z,100042.91
2023-02-18T10:40:28.021Z,100040.84
2023-02-18T10:43:09.491Z,100030.48
2023-02-18T10:45:50.970Z,100025.33
2023-02-18T10:48:35.554Z,100016.50
2023-02-18T10:51:11.085Z,100012.83
2023-02-18T10:53:43.480Z,100006.01
2023-02-18T10:56:37.380Z,100002.06
2023-02-18T10:59:09.987Z,99993.20
2023-02-18T11:01:40.848Z,99986.00
2023-02-18T11:04:19.090Z,99975.92
2023-02-18T11:06:52.085Z,99965.78
2023-02-18T11:09:46.951Z,99961.36
2023-02-18T11:12:19.536Z,99952.05
2023-02-18T11:14:52.414Z,99949.99
2023-02-18T11:17:30.563Z,99950.89
2023-02-18T11:20:02.918Z,99935.58
2023-02-18T11:22:36.916Z,99926.05
2023-02-18T11:25:09.917Z,99920.73
2023-02-18T11:27:48.938Z,99910.65
2023-02-18T11:30:36.473Z,99905.28
2023-02-18T11:33:18.098Z,99900.54
2023-02-18T11:35:53.687Z,99890.06
2023-02-18T11:38:46.523Z,99881.54
2023-02-18T11:41:19.202Z,99870.37
2023-02-18T11:43:52.390Z,99860.14
2023-02-18T11:46:24.716Z,99853.47
2023-02-18T11:48:55.307Z,99843.17
2023-02-18T11:51:37.709Z,99827.31
2023-02-18T11:54:13.218Z,99828.95
2023-02-18T11:56:44.538Z,99822.96
2023-02-18T11:59:14.370Z,99822.62
2023-02-18T12:01:49.754Z,99817.77
2023-02-18T12:04:22.514Z,99808.59
2023-02-18T12:07:07.490Z,99805.73
2023-02-18T12:09:43.442Z,99796.27
2023-02-18T12:12:31.347Z,99777.63
2023-02-18T12:15:01.862Z,99761.20
2023-02-18T12:17:38.070Z,99761.20
2023-02-18T12:20:30.108Z,99758.50
2023-02-18T12:23:15.046Z,99753.81
2023-02-18T12:26:06.418Z,99754.32
2023-02-18T12:29:15.496Z,99747.20
2023-02-18T12:32:00.624Z,99744.70
2023-02-18T12:34:39.386Z,99736.81
2023-02-18T12:37:27.050Z,99725.80
2023-02-18T12:40:22.318Z,99708.62
2023-02-18T12:43:01.403Z,99709.53
2023-02-18T12:45:40.541Z,99692.25
2023-02-18T12:48:45.293Z,99689.03
2023-02-18T12:51:39.569Z,99671.62
2023-02-18T12:54:36.423Z,99657.03
2023-02-18T12:57:33.429Z,99647.92
2023-02-18T13:00:18.440Z,99651.03
2023-02-18T13:02:56.855Z,99645.77
2023-02-18T13:05:55.232Z,99638.30
2023-02-18T13:08:42.925Z,99612.98
2023-02-18T13:11:38.668Z,99612.98
2023-02-18T13:14:23.858Z,99613.12
2023-02-18T13:16:56.900Z,99610.33
2023-02-18T13:19:29.790Z,99587.25
2023-02-18T13:22:05.868Z,99575.80
2023-02-18T13:24:38.654Z,99582.77
2023-02-18T13:27:14.248Z,99588.80
2023-02-18T13:29:56.117Z,99566.08
2023-02-18T13:32:31.695Z,99548.25
2023-02-18T13:35:22.691Z,99537.42
2023-02-18T13:38:07.087Z,99538.42
2023-02-18T13:40:38.013Z,99535.11
2023-02-18T13:43:31.863Z,99535.02
2023-02-18T13:46:19.457Z,99531.84
2023-02-18T13:48:52.998Z,99521.03
2023-02-18T13:51:31.745Z,99517.23
2023-02-18T13:54:31.433Z,99517.23
2023-02-18T13:57:07.247Z,99514.30
2023-02-18T13:59:45.815Z,99505.09
2023-02-18T14:02:25.089Z,99498.20
2023-02-18T14:04:57.655Z,99495.27
2023-02-18T14:07:36.634Z,99485.19
2023-02-18T14:10:21.922Z,99471.56
2023-02-18T14:13:03.654Z,99463.89
2023-02-18T14:15:36.534Z,99450.53
2023-02-18T14:18:18.749Z,99450.53
2023-02-18T14:20:52.561Z,99448.27
2023-02-18T14:23:25.388Z,99442.47
2023-02-18T14:26:15.904Z,99442.47
2023-02-18T14:28:51.529Z,99437.17
2023-02-18T14:31:39.530Z,99425.23
2023-02-18T14:34:23.844Z,99425.02
2023-02-18T14:37:21.886Z,99413.70
2023-02-18T14:40:04.730Z,99417.90
2023-02-18T14:42:58.895Z,99411.06
2023-02-18T14:46:00.464Z,99405.52
2023-02-18T14:48:48.236Z,99414.31
2023-02-18T14:51:20.802Z,99409.69
2023-02-18T14:53:50.706Z,99412.46
2023-02-18T14:56:22.970Z,99409.90
2023-02-18T14:59:01.638Z,99413.77
2023-02-18T15:01:36.789Z,99412.46
2023-02-18T15:04:07.046Z,99411.52
2023-02-18T15:06:39.815Z,99409.62
2023-02-18T15:09:18.205Z,99400.94
2023-02-18T15:12:04.583Z,99405.56
2023-02-18T15:14:37.429Z,99414.53
2023-02-18T15:17:10.262Z,99409.19
2023-02-18T15:19:51.799Z,99403.36
2023-02-18T15:22:24.412Z,99390.25
2023-02-18T15:24:56.712Z,99396.78
2023-02-18T15:27:29.618Z,99387.62
2023-02-18T15:30:02.344Z,99384.22
2023-02-18T15:32:33.962Z,99387.70
2023-02-18T15:35:06.514Z,99375.83
2023-02-18T15:37:36.050Z,99375.06
2023-02-18T15:40:09.725Z,99374.52
2023-02-18T15:42:39.870Z,99377.86
2023-02-18T15:45:24.345Z,99377.63
2023-02-18T15:47:57.037Z,99380.18
2023-02-18T15:50:29.900Z,99378.57
2023-02-18T15:53:02.976Z,99375.48
2023-02-18T15:55:39.195Z,99385.95
2023-02-18T15:58:24.085Z,99375.20
2023-02-18T16:00:57.050Z,99381.36
2023-02-18T16:03:42.176Z,99381.36
2023-02-18T16:06:27.019Z,99364.72
2023-02-18T16:09:09.252Z,99366.98
2023-02-18T16:11:42.162Z,99365.33
2023-02-18T16:14:36.089Z,99361.34
2023-02-18T16:17:18.862Z,99365.55
2023-02-18T16:20:04.980Z,99354.99
2023-02-18T16:22:36.239Z,99355.02
2023-02-18T16:25:19.380Z,99361.83
2023-02-18T16:27:55.425Z,99364.83
2023-02-18T16:30:27.861Z,99362.61
2023-02-18T16:32:58.568Z,99371.98
2023-02-18T16:35:40.510Z,99371.57
2023-02-18T16:38:03.878Z,99381.52
2023-02-18T16:40:36.569Z,99375.25
2023-02-18T16:43:18.153Z,99374.64
2023-02-18T16:45:51.085Z,99380.02
2023-02-18T16:48:41.524Z,99388.05
2023-02-18T16:51:28.962Z,99385.38
2023-02-18T16:53:58.785Z,99378.19
2023-02-18T16:56:33.839Z,99399.45
2023-02-18T16:59:03.828Z,99387.59
2023-02-18T17:01:41.092Z,99396.97
2023-02-18T17:04:13.562Z,99376.09
2023-02-18T17:06:46.197Z,99385.42
2023-02-18T17:09:19.091Z,99386.26
2023-02-18T17:11:51.043Z,99423.77
2023-02-18T17:14:22.951Z,99400.70
2023-02-18T17:16:54.616Z,99403.90
2023-02-18T17:19:24.758Z,99381.98
2023-02-18T17:21:54.604Z,99396.39
2023-02-18T17:24:24.608Z,99396.39
2023-02-18T17:26:54.381Z,99397.88
2023-02-18T17:29:24.175Z,99411.48
2023-02-18T17:31:57.812Z,99420.25
2023-02-18T17:34:32.512Z,99419.28
2023-02-18T17:37:02.502Z,99435.72
2023-02-18T17:39:32.370Z,99439.48
2023-02-18T17:42:02.474Z,99435.34
2023-02-18T17:44:32.268Z,99447.03
2023-02-18T17:47:02.035Z,99445.97
2023-02-18T17:49:31.837Z,99451.50
2023-02-18T17:52:02.226Z,99451.50
2023-02-18T17:54:32.126Z,99457.02
2023-02-18T17:57:01.911Z,99457.88
2023-02-18T17:59:31.688Z,99480.22
2023-02-18T18:02:01.489Z,99463.75
2023-02-18T18:04:32.198Z,99471.69
2023-02-18T18:07:01.382Z,99477.81
2023-02-18T18:09:30.759Z,99477.22
2023-02-18T18:12:00.706Z,99483.72
2023-02-18T18:14:30.437Z,99477.34
2023-02-18T18:17:02.138Z,99489.70
2023-02-18T18:19:33.788Z,99490.92
2023-02-18T18:22:03.591Z,99487.56
2023-02-18T18:24:33.367Z,99497.86
2023-02-18T18:27:03.595Z,99496.77
2023-02-18T18:29:33.556Z,99496.77
2023-02-18T18:32:03.569Z,99506.98
2023-02-18T18:34:33.449Z,99507.82
2023-02-18T18:37:03.589Z,99507.95
2023-02-18T18:39:33.411Z,99504.23
2023-02-18T18:42:03.928Z,99527.53
2023-02-18T18:44:33.755Z,99524.16
2023-02-18T18:47:03.703Z,99513.25
2023-02-18T18:49:33.548Z,99532.45
2023-02-18T18:52:04.026Z,99548.11
2023-02-18T18:54:34.138Z,99558.98
2023-02-18T18:57:04.101Z,99570.02
2023-02-18T18:59:33.883Z,99578.18
2023-02-18T19:02:03.930Z,99572.41
2023-02-18T19:04:33.701Z,99571.33
2023-02-18T19:07:03.527Z,99580.66
2023-02-18T19:09:33.341Z,99587.08
2023-02-18T19:12:03.101Z,99591.77
2023-02-18T19:14:32.919Z,99591.77
2023-02-18T19:17:02.970Z,99629.72
2023-02-18T19:19:33.066Z,99631.44
2023-02-18T19:22:03.131Z,99653.88
2023-02-18T19:24:33.218Z,99657.75
2023-02-18T19:27:03.093Z,99672.34
2023-02-18T19:29:32.890Z,99658.20
2023-02-18T19:32:03.001Z,99670.23
2023-02-18T19:34:32.887Z,99663.98
2023-02-18T19:37:02.958Z,99677.96
2023-02-18T19:39:33.121Z,99686.69
2023-02-18T19:42:02.890Z,99696.62
2023-02-18T19:44:36.248Z,99703.17
2023-02-18T19:47:07.147Z,99717.05
2023-02-18T19:49:37.254Z,99709.00
2023-02-18T19:52:07.192Z,99713.13
2023-02-18T19:54:37.079Z,99730.45
2023-02-18T19:57:07.368Z,99729.83
2023-02-18T19:59:37.393Z,99725.34
2023-02-18T20:02:07.695Z,99725.34
2023-02-18T20:04:37.221Z,99741.16
2023-02-18T20:07:07.581Z,99748.55
2023-02-18T20:09:37.806Z,99750.23
2023-02-18T20:12:09.933Z,99750.56
2023-02-18T20:14:43.593Z,99768.67
2023-02-18T20:17:13.473Z,99764.09
2023-02-18T20:19:43.586Z,99777.09
2023-02-18T20:22:13.567Z,99774.17
2023-02-18T20:24:43.614Z,99778.76
2023-02-18T20:27:13.180Z,99785.23
2023-02-18T20:29:43.060Z,99803.71
2023-02-18T20:32:12.590Z,99812.33
2023-02-18T20:34:43.990Z,99812.97
2023-02-18T20:37:12.778Z,99809.80
2023-02-18T20:39:42.608Z,99801.70
2023-02-18T20:42:16.641Z,99804.61
2023-02-18T20:44:43.784Z,99804.38
2023-02-18T20:47:14.374Z,99817.05
2023-02-18T20:49:44.108Z,99815.12
2023-02-18T20:52:13.752Z,99818.70
2023-02-18T20:54:43.649Z,99820.08
2023-02-18T20:57:13.350Z,99820.08
2023-02-18T20:59:43.098Z,99826.40
2023-02-18T21:02:16.806Z,99826.14
2023-02-18T21:04:46.732Z,99834.28
2023-02-18T21:07:16.715Z,99837.95
2023-02-18T21:09:46.488Z,99841.16
2023-02-18T21:12:16.233Z,99835.98
2023-02-18T21:14:46.083Z,99843.31
2023-02-18T21:17:16.035Z,99846.06
2023-02-18T21:19:45.749Z,99851.75
2023-02-18T21:22:15.523Z,99856.94
2023-02-18T21:24:45.317Z,99865.63
2023-02-18T21:27:14.804Z,99869.80
2023-02-18T21:29:44.678Z,99874.17
2023-02-18T21:32:14.296Z,99872.39
2023-02-18T21:34:44.442Z,99869.78
2023-02-18T21:37:14.102Z,99874.66
2023-02-18T21:39:43.920Z,99878.27
2023-02-18T21:42:13.513Z,99882.34
2023-02-18T21:44:43.621Z,99890.94
2023-02-18T21:47:13.242Z,99891.27
2023-02-18T21:49:43.038Z,99885.13
2023-02-18T21:52:12.662Z,99888.55
2023-02-18T21:54:44.961Z,99887.09
2023-02-18T21:57:18.066Z,99885.78
2023-02-18T21:59:48.128Z,99895.35
2023-02-18T22:02:23.737Z,99905.30
2023-02-18T22:04:53.950Z,99903.61
2023-02-18T22:07:26.444Z,99899.48
2023-02-18T22:09:56.815Z,99900.98
2023-02-18T22:12:27.289Z,99901.06
2023-02-18T22:14:56.824Z,99903.23
2023-02-18T22:17:28.229Z,99914.02
2023-02-18T22:19:56.980Z,99910.45
2023-02-18T22:22:26.880Z,99913.83
2023-02-18T22:24:56.634Z,99921.70
2023-02-18T22:27:27.200Z,99923.11
2023-02-18T22:29:57.248Z,99915.32
2023-02-18T22:32:27.168Z,99905.86
2023-02-18T22:34:56.965Z,99915.59
2023-02-18T22:37:26.867Z,99928.65
2023-02-18T22:39:56.740Z,99930.32
2023-02-18T22:42:26.771Z,99932.77
2023-02-18T22:44:57.221Z,99936.69
2023-02-18T22:47:26.807Z,99934.35
2023-02-18T22:49:56.571Z,99940.16
2023-02-18T22:52:26.380Z,99948.03
2023-02-18T22:54:56.450Z,99951.51
2023-02-18T22:57:26.250Z,99954.27
2023-02-18T22:59:56.307Z,99946.73
2023-02-18T23:02:26.185Z,99945.79
2023-02-18T23:04:55.958Z,99952.63
2023-02-18T23:07:26.222Z,99946.23
2023-02-18T23:09:56.000Z,99947.48
2023-02-18T23:12:26.088Z,99944.88
2023-02-18T23:14:55.878Z,99939.52
2023-02-18T23:17:25.781Z,99943.34
2023-02-18T23:19:55.552Z,99948.25
2023-02-18T23:22:32.350Z,99948.08
2023-02-18T23:25:03.181Z,99940.65
2023-02-18T23:27:33.129Z,99945.63
2023-02-18T23:30:03.147Z,99955.83
2023-02-18T23:32:33.327Z,99954.13
2023-02-18T23:35:03.136Z,99954.13
2023-02-18T23:37:50.989Z,99953.83
2023-02-18T23:40:20.856Z,99952.92
2023-02-18T23:42:52.691Z,99952.47
2023-02-18T23:45:24.207Z,99952.27
2023-02-18T23:47:53.086Z,99950.97
2023-02-18T23:50:22.797Z,99954.73
2023-02-18T23:52:53.476Z,99956.12
2023-02-18T23:55:22.975Z,99948.62
2023-02-18T23:57:52.785Z,99947.86
